Terminal Aerodrome Forecast
Issued by NWS Sioux Falls, SD

Home | Current Version | Previous Version | Text Only | Print | Product List | Glossary On
Versions: 1 2 3 4 5 6 7 8 9 10 11 12 13 14 15 16
575
FTUS43 KFSD 232106 AAA
TAFHON
TAF AMD
KHON 232106Z 2321/2418 15011KT P6SM OVC020
     FM232300 11008KT P6SM OVC019
     FM240000 05007KT P6SM VCSH OVC008
     FM240800 36013G21KT P6SM VCSH OVC003
     FM241300 01017G25KT P6SM OVC008=

USA.gov is the U.S. government's official web portal to all federal, state and local government web resources and services.